createdAt,value
2023-04-18T03:12:23.629Z,10.83
2023-04-18T03:15:27.015Z,10.83
2023-04-18T03:18:29.359Z,10.32
2023-04-18T03:21:32.033Z,10.31
2023-04-18T03:24:34.515Z,10.25
2023-04-18T03:27:37.571Z,10.28
2023-04-18T03:30:39.957Z,10.32
2023-04-18T03:33:44.203Z,10.36
2023-04-18T03:36:47.992Z,10.30
2023-04-18T03:39:51.758Z,10.31
2023-04-18T03:42:54.569Z,10.34
2023-04-18T03:45:57.025Z,10.37
2023-04-18T03:48:59.708Z,10.43
2023-04-18T03:52:02.134Z,10.44
2023-04-18T03:55:04.873Z,10.48
2023-04-18T03:58:08.437Z,10.45
2023-04-18T04:01:11.042Z,10.39
2023-04-18T04:04:15.290Z,10.39
2023-04-18T04:07:18.151Z,10.54
2023-04-18T04:10:21.323Z,10.47
2023-04-18T04:13:24.057Z,10.44
2023-04-18T04:16:27.873Z,10.49
2023-04-18T04:19:30.316Z,10.77
2023-04-18T04:22:34.411Z,10.83
2023-04-18T04:25:38.594Z,10.80
2023-04-18T04:28:42.874Z,10.79
2023-04-18T04:31:46.536Z,10.85
2023-04-18T04:34:50.444Z,10.98
2023-04-18T04:37:52.967Z,10.97
2023-04-18T04:40:57.440Z,10.95
2023-04-18T04:44:01.743Z,10.89
2023-04-18T04:47:04.939Z,10.80
2023-04-18T04:50:11.632Z,10.82
2023-04-18T04:53:14.090Z,10.82
2023-04-18T04:56:16.390Z,10.87
2023-04-18T04:59:19.281Z,10.90
2023-04-18T05:02:23.249Z,10.88
2023-04-18T05:05:26.945Z,10.88
2023-04-18T05:08:29.093Z,10.94
2023-04-18T05:11:31.537Z,10.76
2023-04-18T05:14:33.783Z,10.68
2023-04-18T05:17:36.317Z,10.62
2023-04-18T05:20:38.538Z,10.56
2023-04-18T05:23:40.974Z,10.60
2023-04-18T05:26:43.427Z,10.60
2023-04-18T05:29:47.515Z,10.65
2023-04-18T05:32:49.948Z,10.71
2023-04-18T05:35:52.484Z,10.74
2023-04-18T05:38:54.657Z,10.75
2023-04-18T05:41:58.293Z,10.97
2023-04-18T05:45:00.547Z,11.17
2023-04-18T05:48:03.245Z,11.37
2023-04-18T05:51:05.876Z,11.57
2023-04-18T05:54:08.269Z,11.67
2023-04-18T05:57:10.545Z,12.01
2023-04-18T06:00:13.759Z,12.26
2023-04-18T06:03:16.693Z,12.45
2023-04-18T06:06:19.278Z,12.91
2023-04-18T06:09:21.775Z,13.04
2023-04-18T06:12:24.259Z,13.25
2023-04-18T06:15:28.207Z,13.64
2023-04-18T06:18:30.369Z,13.77
2023-04-18T06:21:32.896Z,13.68
2023-04-18T06:24:35.169Z,13.64
2023-04-18T06:27:38.272Z,14.02
2023-04-18T06:30:40.631Z,14.02
2023-04-18T06:33:43.057Z,14.00
2023-04-18T06:36:45.293Z,14.16
2023-04-18T06:39:47.797Z,14.22
2023-04-18T06:42:49.932Z,14.59
2023-04-18T06:45:52.822Z,15.17
2023-04-18T06:48:55.063Z,16.09
2023-04-18T06:51:57.504Z,16.46
2023-04-18T06:54:59.683Z,18.42
2023-04-18T06:58:02.110Z,20.70
2023-04-18T07:01:04.505Z,21.34
2023-04-18T07:04:07.055Z,22.24
2023-04-18T07:07:09.379Z,22.33
2023-04-18T07:10:11.910Z,21.46
2023-04-18T07:13:14.045Z,20.46
2023-04-18T07:16:16.635Z,19.70
2023-04-18T07:19:18.871Z,20.64
2023-04-18T07:22:21.295Z,22.69
2023-04-18T07:25:23.398Z,23.45
2023-04-18T07:28:25.959Z,22.21
2023-04-18T07:31:28.707Z,19.94
2023-04-18T07:34:31.475Z,19.21
2023-04-18T07:37:33.653Z,18.49
2023-04-18T07:40:36.054Z,18.49
2023-04-18T07:43:38.971Z,17.61
2023-04-18T07:46:41.543Z,17.44
2023-04-18T07:49:43.737Z,17.68
2023-04-18T07:52:48.714Z,17.69
2023-04-18T07:55:51.139Z,17.34
2023-04-18T07:58:53.776Z,17.80
2023-04-18T08:01:56.099Z,17.51
2023-04-18T08:04:58.965Z,17.75
2023-04-18T08:08:02.370Z,18.60
2023-04-18T08:11:04.906Z,19.27
2023-04-18T08:14:07.058Z,19.45
2023-04-18T08:17:09.608Z,20.79
2023-04-18T08:20:12.992Z,21.45
2023-04-18T08:23:15.932Z,22.52
2023-04-18T08:26:18.206Z,21.99
2023-04-18T08:29:20.620Z,22.32
2023-04-18T08:32:22.758Z,22.27
2023-04-18T08:35:25.226Z,23.70
2023-04-18T08:38:27.461Z,24.50
2023-04-18T08:41:35.947Z,26.34
2023-04-18T08:44:38.204Z,27.68
2023-04-18T08:47:41.792Z,27.27
2023-04-18T08:50:45.349Z,28.55
2023-04-18T08:53:48.311Z,30.09
2023-04-18T08:57:12.600Z,28.85
2023-04-18T09:00:17.692Z,29.50
2023-04-18T09:03:39.992Z,30.60
2023-04-18T09:06:53.126Z,31.99
2023-04-18T09:09:57.290Z,30.32
2023-04-18T09:13:03.253Z,30.55
2023-04-18T09:16:06.349Z,32.88
2023-04-18T09:19:14.623Z,30.74
2023-04-18T09:22:18.083Z,27.54
2023-04-18T09:25:29.383Z,25.15
2023-04-18T09:28:33.236Z,24.46
2023-04-18T09:31:51.103Z,24.57
2023-04-18T09:34:58.007Z,24.41
2023-04-18T09:38:00.725Z,27.93
2023-04-18T09:41:10.242Z,31.39
2023-04-18T09:44:14.987Z,28.42
2023-04-18T09:47:17.625Z,29.16
2023-04-18T09:50:20.825Z,27.76
2023-04-18T09:53:24.336Z,25.83
2023-04-18T09:56:29.553Z,25.04
2023-04-18T09:59:41.389Z,28.19
2023-04-18T10:02:58.043Z,31.42
2023-04-18T10:06:00.840Z,30.89
2023-04-18T10:09:04.239Z,30.90
2023-04-18T10:12:06.978Z,29.32
2023-04-18T10:15:11.173Z,26.76
2023-04-18T10:18:16.949Z,24.15
2023-04-18T10:21:19.059Z,23.09
2023-04-18T10:24:56.868Z,23.28
2023-04-18T10:28:02.908Z,24.92
2023-04-18T10:31:05.835Z,23.59
2023-04-18T10:34:08.186Z,22.24
2023-04-18T10:37:12.830Z,22.38
2023-04-18T10:40:15.697Z,24.24
2023-04-18T10:43:18.372Z,24.98
2023-04-18T10:46:31.130Z,25.00
2023-04-18T10:49:36.639Z,23.73
2023-04-18T10:52:39.086Z,23.56
2023-04-18T10:55:50.131Z,23.94
2023-04-18T10:58:53.668Z,24.71
2023-04-18T11:02:09.838Z,23.48
2023-04-18T11:05:12.139Z,24.05
2023-04-18T11:08:24.212Z,23.98
2023-04-18T11:11:26.447Z,24.65
2023-04-18T11:14:51.954Z,28.89
2023-04-18T11:17:58.065Z,27.77
2023-04-18T11:21:03.753Z,25.15
2023-04-18T11:24:06.160Z,23.11
2023-04-18T11:27:10.937Z,22.19
2023-04-18T11:30:14.850Z,22.42
2023-04-18T11:33:17.343Z,23.76
2023-04-18T11:36:19.525Z,22.37
2023-04-18T11:39:22.383Z,21.00
2023-04-18T11:42:28.544Z,20.66
2023-04-18T11:45:31.261Z,20.45
2023-04-18T11:48:43.193Z,20.76
2023-04-18T11:51:47.363Z,21.03
2023-04-18T11:54:51.332Z,21.66
2023-04-18T11:57:54.776Z,21.72
2023-04-18T12:00:57.008Z,21.06
2023-04-18T12:04:07.129Z,20.51
2023-04-18T12:07:09.479Z,20.22
2023-04-18T12:10:27.576Z,19.97
2023-04-18T12:13:33.055Z,19.77
2023-04-18T12:16:35.647Z,19.51
2023-04-18T12:19:37.937Z,20.35
2023-04-18T12:22:42.034Z,20.99
2023-04-18T12:25:44.298Z,21.63
2023-04-18T12:28:51.213Z,22.07
2023-04-18T12:31:53.498Z,22.48
2023-04-18T12:34:55.938Z,22.82
2023-04-18T12:38:00.365Z,22.73
2023-04-18T12:41:02.790Z,22.28
2023-04-18T12:44:05.950Z,22.00
2023-04-18T12:47:08.900Z,21.98
2023-04-18T12:50:15.479Z,20.87
2023-04-18T12:53:17.926Z,20.63
2023-04-18T12:56:21.038Z,20.33
2023-04-18T12:59:23.762Z,20.55
2023-04-18T13:02:28.914Z,19.94
2023-04-18T13:05:33.938Z,19.94
2023-04-18T13:08:37.475Z,19.87
2023-04-18T13:11:39.861Z,19.91
2023-04-18T13:14:42.675Z,19.72
2023-04-18T13:17:45.426Z,19.65
2023-04-18T13:20:47.818Z,19.19
2023-04-18T13:23:50.250Z,19.23
2023-04-18T13:26:52.837Z,19.65
2023-04-18T13:29:58.325Z,19.86
2023-04-18T13:33:00.635Z,19.89
2023-04-18T13:36:03.297Z,19.88
2023-04-18T13:39:05.742Z,20.20
2023-04-18T13:42:08.848Z,20.26
2023-04-18T13:45:11.236Z,19.96
2023-04-18T13:48:15.705Z,19.75
2023-04-18T13:51:19.004Z,19.82
2023-04-18T13:54:21.819Z,19.92
2023-04-18T13:57:23.970Z,19.25
2023-04-18T14:00:26.940Z,18.69
2023-04-18T14:03:30.007Z,18.38
2023-04-18T14:06:32.649Z,18.31
2023-04-18T14:09:35.230Z,18.52
2023-04-18T14:12:37.548Z,18.75
2023-04-18T14:15:40.043Z,18.59
2023-04-18T14:18:42.365Z,18.65
2023-04-18T14:21:46.504Z,18.86
2023-04-18T14:24:49.127Z,18.82
2023-04-18T14:28:04.685Z,18.75
2023-04-18T14:31:06.877Z,18.63
2023-04-18T14:34:09.822Z,18.56
2023-04-18T14:37:12.050Z,18.63
2023-04-18T14:40:14.592Z,18.51
2023-04-18T14:43:16.821Z,18.62
2023-04-18T14:46:20.990Z,18.62
2023-04-18T14:49:23.190Z,18.63
2023-04-18T14:52:25.765Z,18.61
2023-04-18T14:55:27.925Z,18.57
2023-04-18T14:58:30.467Z,18.44
2023-04-18T15:01:32.593Z,18.19
2023-04-18T15:04:35.107Z,18.06
2023-04-18T15:07:37.933Z,17.69
2023-04-18T15:10:42.257Z,17.63
2023-04-18T15:13:44.647Z,17.87
2023-04-18T15:16:49.953Z,17.96
